createdAt,value
2022-12-03T00:00:51.117Z,24.10
2022-12-03T00:05:52.706Z,25.17
2022-12-03T00:10:54.283Z,24.92
2022-12-03T00:15:56.205Z,27.00
2022-12-03T00:20:57.859Z,28.42
2022-12-03T00:25:59.435Z,28.52
2022-12-03T00:31:01.075Z,31.20
2022-12-03T00:36:02.738Z,29.58
2022-12-03T00:41:04.415Z,33.05
2022-12-03T00:46:06.246Z,34.53
2022-12-03T00:51:07.905Z,33.28
2022-12-03T00:56:09.556Z,34.42
2022-12-03T01:01:11.133Z,35.38
2022-12-03T01:06:12.728Z,33.95
2022-12-03T01:11:33.143Z,35.05
2022-12-03T01:16:35.310Z,31.83
2022-12-03T01:21:37.745Z,34.92
2022-12-03T01:26:39.459Z,31.42
2022-12-03T01:31:59.643Z,32.92
2022-12-03T01:37:01.269Z,29.88
2022-12-03T01:42:03.326Z,30.13
2022-12-03T01:47:07.565Z,31.20
2022-12-03T01:52:14.284Z,30.52
2022-12-03T01:57:35.740Z,29.88
2022-12-03T02:02:37.320Z,32.45
2022-12-03T02:07:38.977Z,26.77
2022-12-03T02:12:48.080Z,26.90
2022-12-03T02:17:50.338Z,27.13
2022-12-03T02:23:36.060Z,23.23
2022-12-03T02:28:38.510Z,22.92
2022-12-03T02:33:40.183Z,21.88
2022-12-03T02:38:43.646Z,20.35
2022-12-03T02:43:45.264Z,19.98
2022-12-03T02:48:46.876Z,21.08
2022-12-03T02:53:50.683Z,19.70
2022-12-03T02:58:55.125Z,21.40
2022-12-03T03:03:58.045Z,18.30
2022-12-03T03:08:59.671Z,21.30
2022-12-03T03:14:02.713Z,15.57
2022-12-03T03:19:04.498Z,20.25
2022-12-03T03:24:06.457Z,18.33
2022-12-03T03:29:08.259Z,18.83
2022-12-03T03:34:10.554Z,19.10
2022-12-03T03:39:12.916Z,18.63
2022-12-03T03:44:14.616Z,17.70
2022-12-03T03:49:16.371Z,18.70
2022-12-03T03:54:18.232Z,19.52
2022-12-03T03:59:19.871Z,18.30
2022-12-03T04:04:23.822Z,16.17
2022-12-03T04:09:25.473Z,17.88
2022-12-03T04:14:27.105Z,17.08
2022-12-03T04:19:28.696Z,17.75
2022-12-03T04:24:30.293Z,16.55
2022-12-03T04:29:31.907Z,17.42
2022-12-03T04:34:52.624Z,17.45
2022-12-03T04:39:54.606Z,15.50
2022-12-03T04:44:58.421Z,18.85
2022-12-03T04:50:00.022Z,17.48
2022-12-03T04:55:01.665Z,17.90
2022-12-03T05:00:05.111Z,15.80
2022-12-03T05:05:07.077Z,17.20
2022-12-03T05:10:10.247Z,17.05
2022-12-03T05:15:11.848Z,16.42
2022-12-03T05:20:32.707Z,15.23
2022-12-03T05:25:34.348Z,17.30
2022-12-03T05:30:36.252Z,16.67
2022-12-03T05:35:38.592Z,17.50
2022-12-03T05:40:40.525Z,18.52
2022-12-03T05:45:44.383Z,20.35
2022-12-03T05:50:46.964Z,19.33
2022-12-03T05:55:48.562Z,18.45
2022-12-03T06:00:50.156Z,19.60
2022-12-03T06:05:51.773Z,17.70
2022-12-03T06:10:53.388Z,16.83
2022-12-03T06:15:55.181Z,17.70
2022-12-03T06:20:56.792Z,18.00
2022-12-03T06:25:58.555Z,18.15
2022-12-03T06:31:00.253Z,18.77
2022-12-03T06:36:01.920Z,19.63
2022-12-03T06:41:03.702Z,18.67
2022-12-03T06:46:05.584Z,17.05
2022-12-03T06:51:07.281Z,18.85
2022-12-03T06:56:08.888Z,17.90
2022-12-03T07:01:10.738Z,18.27
2022-12-03T07:06:12.704Z,19.65
2022-12-03T07:11:32.684Z,18.13
2022-12-03T07:16:35.549Z,19.58
2022-12-03T07:21:37.476Z,18.50
2022-12-03T07:26:39.284Z,17.38
2022-12-03T07:31:42.615Z,19.77
2022-12-03T07:36:44.259Z,17.77
2022-12-03T07:41:45.857Z,18.27
2022-12-03T07:46:47.555Z,19.52
2022-12-03T07:51:54.301Z,21.55
2022-12-03T07:57:01.175Z,20.20
2022-12-03T08:02:03.619Z,20.38
2022-12-03T08:07:06.108Z,20.55
2022-12-03T08:12:17.212Z,21.17
2022-12-03T08:17:19.870Z,21.38
2022-12-03T08:22:22.322Z,22.05
2022-12-03T08:27:23.988Z,23.23
2022-12-03T08:32:25.595Z,25.27
2022-12-03T08:37:27.219Z,25.42
2022-12-03T08:42:42.008Z,25.38
2022-12-03T08:47:43.599Z,23.73
2022-12-03T08:52:45.211Z,24.42
2022-12-03T08:57:46.938Z,26.40
2022-12-03T09:02:52.361Z,24.88
2022-12-03T09:07:54.127Z,24.98
2022-12-03T09:12:55.802Z,26.35
2022-12-03T09:17:57.435Z,28.63
2022-12-03T09:22:59.029Z,27.02
2022-12-03T09:28:00.676Z,28.80
2022-12-03T09:33:02.574Z,34.83
2022-12-03T09:38:04.172Z,30.17
2022-12-03T09:43:07.146Z,28.67
2022-12-03T09:48:10.302Z,28.13
2022-12-03T09:53:17.864Z,29.73
2022-12-03T09:58:20.819Z,30.83
2022-12-03T10:03:29.980Z,31.83
2022-12-03T10:08:33.352Z,33.85
2022-12-03T10:13:37.687Z,36.72
2022-12-03T10:18:43.238Z,32.65
2022-12-03T10:23:49.515Z,35.83
2022-12-03T10:28:56.836Z,32.63
2022-12-03T10:33:58.556Z,38.30
2022-12-03T10:39:14.444Z,36.67
2022-12-03T10:44:21.768Z,36.47
2022-12-03T10:49:23.357Z,46.70
2022-12-03T10:54:27.682Z,40.53
2022-12-03T10:59:33.300Z,47.78
2022-12-03T11:04:36.466Z,34.72
2022-12-03T11:09:38.300Z,43.55
2022-12-03T11:14:52.590Z,43.30
2022-12-03T11:19:54.690Z,37.00
2022-12-03T11:25:27.182Z,40.72
2022-12-03T11:30:48.856Z,76.18
2022-12-03T11:36:02.662Z,36.40
2022-12-03T11:41:24.360Z,39.55
2022-12-03T11:46:43.553Z,38.72
2022-12-03T11:51:45.308Z,36.10
2022-12-03T11:56:51.463Z,35.80
2022-12-03T12:01:53.080Z,38.50
2022-12-03T12:06:54.673Z,39.80
2022-12-03T12:11:56.283Z,35.17
2022-12-03T12:16:58.524Z,38.05
2022-12-03T12:22:12.558Z,35.85
2022-12-03T12:27:32.467Z,36.83
2022-12-03T12:32:44.321Z,35.38
2022-12-03T12:38:11.377Z,35.22
2022-12-03T12:43:26.420Z,36.08
2022-12-03T12:48:39.748Z,38.58
2022-12-03T12:53:45.405Z,37.50
2022-12-03T12:58:47.022Z,35.35
2022-12-03T13:03:51.932Z,36.47
2022-12-03T13:08:54.452Z,33.92
2022-12-03T13:13:56.313Z,36.92
2022-12-03T13:19:00.817Z,37.67
2022-12-03T13:24:03.598Z,39.28
2022-12-03T13:29:16.938Z,36.13
2022-12-03T13:34:24.617Z,36.88
2022-12-03T13:39:32.507Z,39.05
2022-12-03T13:44:36.654Z,39.15
2022-12-03T13:49:38.330Z,38.17
2022-12-03T13:54:40.029Z,37.45
2022-12-03T13:59:41.722Z,35.92
2022-12-03T14:04:43.348Z,34.47
2022-12-03T14:09:44.959Z,34.60
2022-12-03T14:14:46.619Z,36.13
2022-12-03T14:19:48.303Z,37.10
2022-12-03T14:24:50.384Z,40.88
2022-12-03T14:29:52.599Z,37.75
2022-12-03T14:34:54.565Z,37.88
2022-12-03T14:39:56.457Z,40.63
2022-12-03T14:44:58.410Z,39.67
2022-12-03T14:50:00.011Z,36.78
2022-12-03T14:55:01.995Z,37.45
2022-12-03T15:00:07.573Z,41.97
2022-12-03T15:05:09.571Z,41.28
2022-12-03T15:10:11.322Z,42.05
2022-12-03T15:15:12.926Z,40.63
2022-12-03T15:20:14.725Z,45.08
2022-12-03T15:25:24.157Z,38.40
2022-12-03T15:30:25.859Z,40.75
2022-12-03T15:35:27.456Z,41.30
2022-12-03T15:40:29.081Z,44.25
2022-12-03T15:45:30.690Z,43.10
2022-12-03T15:50:35.789Z,47.65
2022-12-03T15:55:41.437Z,45.50
2022-12-03T16:00:43.055Z,41.75
2022-12-03T16:05:44.662Z,45.72
2022-12-03T16:10:46.330Z,42.30
2022-12-03T16:15:48.128Z,45.38
2022-12-03T16:20:49.915Z,44.58
2022-12-03T16:25:51.552Z,44.50
2022-12-03T16:30:53.601Z,44.88
2022-12-03T16:35:55.350Z,43.92
2022-12-03T16:40:57.748Z,46.40
2022-12-03T16:46:02.887Z,44.28
2022-12-03T16:51:04.879Z,44.10
2022-12-03T16:56:06.540Z,41.63
2022-12-03T17:01:08.643Z,44.97
2022-12-03T17:06:10.358Z,44.05
2022-12-03T17:11:12.061Z,44.20
2022-12-03T17:16:13.800Z,44.40
2022-12-03T17:21:15.528Z,46.17
2022-12-03T17:26:20.416Z,42.55
2022-12-03T17:31:22.091Z,46.03
2022-12-03T17:36:24.909Z,44.33
2022-12-03T17:41:26.836Z,44.60
2022-12-03T17:46:28.537Z,48.22
2022-12-03T17:51:30.656Z,45.45
2022-12-03T17:56:32.890Z,42.72
2022-12-03T18:01:34.601Z,42.20
2022-12-03T18:06:36.647Z,45.05
2022-12-03T18:11:38.349Z,45.08
2022-12-03T18:16:40.361Z,45.60
2022-12-03T18:21:42.145Z,43.40
2022-12-03T18:26:43.783Z,43.05
2022-12-03T18:31:45.508Z,43.00
2022-12-03T18:36:49.663Z,49.50
2022-12-03T18:41:52.238Z,44.28
2022-12-03T18:46:55.988Z,43.00
2022-12-03T18:51:59.767Z,45.30
2022-12-03T18:57:01.544Z,44.35
2022-12-03T19:02:03.348Z,43.15
2022-12-03T19:07:05.108Z,43.10
2022-12-03T19:12:14.288Z,44.40
2022-12-03T19:17:16.385Z,43.25
2022-12-03T19:22:17.981Z,42.10
2022-12-03T19:27:19.583Z,46.88
2022-12-03T19:32:21.216Z,42.88
2022-12-03T19:37:22.845Z,44.20
2022-12-03T19:42:24.534Z,46.08
2022-12-03T19:47:26.394Z,45.30
2022-12-03T19:52:28.027Z,45.25
2022-12-03T19:57:29.608Z,48.40
2022-12-03T20:02:31.279Z,45.78
2022-12-03T20:07:33.100Z,42.10
2022-12-03T20:12:34.702Z,46.47
2022-12-03T20:17:36.889Z,43.42
2022-12-03T20:22:38.955Z,43.63
2022-12-03T20:27:40.697Z,48.10
2022-12-03T20:32:45.499Z,44.97
2022-12-03T20:37:47.459Z,43.55
2022-12-03T20:42:49.211Z,44.80
2022-12-03T20:47:50.803Z,44.55
2022-12-03T20:53:16.276Z,44.67
2022-12-03T21:03:16.875Z,43.03
2022-12-03T21:08:34.032Z,41.45
2022-12-03T21:18:43.972Z,42.20
2022-12-03T21:23:45.709Z,42.40
2022-12-03T21:28:49.644Z,40.22
2022-12-03T21:33:54.762Z,42.30
2022-12-03T21:38:56.484Z,41.45
2022-12-03T21:43:58.766Z,40.75
2022-12-03T21:49:01.148Z,40.80
2022-12-03T21:54:03.229Z,40.92
2022-12-03T21:59:04.829Z,39.22
2022-12-03T22:04:06.473Z,40.92
2022-12-03T22:09:08.062Z,37.67
2022-12-03T22:14:10.000Z,36.78
2022-12-03T22:19:11.587Z,37.75
2022-12-03T22:24:13.269Z,36.78
2022-12-03T22:29:15.086Z,34.75
2022-12-03T22:34:16.708Z,37.60
2022-12-03T22:39:18.328Z,38.35
2022-12-03T22:44:20.134Z,35.88
2022-12-03T22:49:21.734Z,36.78
2022-12-03T22:54:24.337Z,35.40
2022-12-03T22:59:26.056Z,34.15
2022-12-03T23:04:27.645Z,35.40
2022-12-03T23:09:29.321Z,33.05
2022-12-03T23:14:30.968Z,36.58
2022-12-03T23:19:32.663Z,34.30
2022-12-03T23:24:34.375Z,33.97
2022-12-03T23:29:35.978Z,32.45
2022-12-03T23:34:37.589Z,33.97
2022-12-03T23:39:39.307Z,36.30
2022-12-03T23:44:40.926Z,32.33
2022-12-03T23:49:42.571Z,33.53
2022-12-03T23:54:44.209Z,32.65
2022-12-03T23:59:45.792Z,32.00
